Time;durP1;ratioP1;P1;durP2;ratioP2;P2;SDS_P1;SDS_P2;PMS_P1;PMS_P2;Temp;Humidity;BMP_temperature;BMP_pressure;BME280_temperature;BME280_humidity;BME280_pressure;Samples;Min_cycle;Max_cycle;Signal;HPM_P1;HPM_P2
2022/09/05 03:22:14;;;;;;;;;;;;;;;10.91;100.00;99946.06;6093933;22;20256;-80
2022/09/05 03:24:48;;;;;;;;;;;;;;;11.00;100.00;99945.69;6120782;23;19921;-80
2022/09/05 03:27:27;;;;;;;;;;;;;;;11.15;100.00;99948.63;6120927;23;19924;-81
2022/09/05 03:30:00;;;;;;;;;;;;;;;11.12;100.00;99946.09;6121869;23;19920;-82
2022/09/05 03:32:47;;;;;;;;;;;;;;;11.06;100.00;99950.75;6122328;23;19991;-82
2022/09/05 03:35:13;;;;;;;;;;;;;;;11.14;100.00;99953.06;6224892;23;19928;-81
2022/09/05 03:37:50;;;;;;;;;;;;;;;11.30;100.00;99950.63;6247996;22;20319;-81
2022/09/05 03:40:24;;;;;;;;;;;;;;;11.24;100.00;99951.75;6122047;23;19913;-81
2022/09/05 03:43:02;;;;;;;;;;;;;;;11.13;100.00;99961.09;6121800;23;20320;-83
2022/09/05 03:45:27;;;;;;;;;;;;;;;11.17;100.00;99958.25;6250119;22;19944;-82
2022/09/05 03:48:04;;;;;;;;;;;;;;;11.37;100.00;99959.19;6121957;23;19916;-81
2022/09/05 03:50:50;;;;;;;;;;;;;;;11.27;100.00;99958.72;6121971;23;19917;-79
2022/09/05 03:53:30;;;;;;;;;;;;;;;11.23;100.00;99951.81;6106815;22;19909;-80
2022/09/05 03:56:09;;;;;;;;;;;;;;;11.22;100.00;99958.91;6249814;22;19924;-80
2022/09/05 03:58:37;;;;;;;;;;;;;;;11.44;100.00;99956.19;6121753;23;19948;-79
2022/09/05 04:01:20;;;;;;;;;;;;;;;11.35;100.00;99958.41;6122014;23;20350;-80
2022/09/05 04:03:50;;;;;;;;;;;;;;;11.27;100.00;99964.88;6122011;23;19917;-82
2022/09/05 04:06:31;;;;;;;;;;;;;;;11.37;100.00;99960.03;6120630;23;19936;-80
2022/09/05 04:09:11;;;;;;;;;;;;;;;11.46;100.00;99958.78;6122286;23;19913;-80
2022/09/05 04:11:43;;;;;;;;;;;;;;;11.39;100.00;99963.50;6122232;23;19916;-80
2022/09/05 04:14:24;;;;;;;;;;;;;;;11.26;100.00;99956.97;6224005;23;19919;-80
2022/09/05 04:16:55;;;;;;;;;;;;;;;11.41;100.00;99951.03;6122134;23;19921;-80
2022/09/05 04:19:36;;;;;;;;;;;;;;;11.56;100.00;99948.63;6122211;23;20307;-80
2022/09/05 04:22:08;;;;;;;;;;;;;;;11.44;100.00;99945.59;6120727;23;19917;-80
2022/09/05 04:24:51;;;;;;;;;;;;;;;11.33;100.00;99953.16;6218632;23;19940;-80
2022/09/05 04:27:30;;;;;;;;;;;;;;;11.37;100.00;99949.41;6218905;23;19913;-80
2022/09/05 04:29:58;;;;;;;;;;;;;;;11.54;100.00;99942.53;6092434;23;19921;-80
2022/09/05 04:32:36;;;;;;;;;;;;;;;11.43;100.00;99954.47;6092634;23;20301;-81
2022/09/05 07:56:47;;;;;;;;;;;;;;;10.95;100.00;100060.84;6270414;22;19929;-84
2022/09/05 07:59:14;;;;;;;;;;;;;;;11.14;100.00;100064.47;6276694;22;19921;-86
2022/09/05 08:01:44;;;;;;;;;;;;;;;11.17;100.00;100069.63;6279009;22;19983;-86
2022/09/05 08:04:30;;;;;;;;;;;;;;;11.03;100.00;100056.94;6276078;22;20249;-86
2022/09/05 08:06:58;;;;;;;;;;;;;;;10.94;100.00;100057.28;6277183;22;19911;-86
2022/09/05 08:09:38;;;;;;;;;;;;;;;11.19;100.00;100057.16;6250759;22;19911;-87
2022/09/05 08:12:25;;;;;;;;;;;;;;;11.15;100.00;100066.16;6277255;22;19918;-86
2022/09/05 08:15:21;;;;;;;;;;;;;;;11.09;100.00;100071.75;6278654;22;20063;-88
2022/09/05 08:18:05;;;;;;;;;;;;;;;11.14;100.00;100074.22;6237757;22;19918;-90
2022/09/05 08:20:41;;;;;;;;;;;;;;;11.29;100.00;100080.66;6277016;22;20353;-86
2022/09/05 08:23:21;;;;;;;;;;;;;;;11.44;100.00;100080.91;6275619;22;19915;-88
2022/09/05 08:25:56;;;;;;;;;;;;;;;11.34;100.00;100062.78;6275977;22;20318;-86
2022/09/05 08:28:40;;;;;;;;;;;;;;;11.23;100.00;100058.78;6276693;22;19964;-90
2022/09/05 08:31:26;;;;;;;;;;;;;;;11.35;100.00;100061.84;6276888;22;19934;-87
2022/09/05 08:33:55;;;;;;;;;;;;;;;11.43;100.00;100057.94;6275425;22;19915;-86
2022/09/05 08:36:45;;;;;;;;;;;;;;;11.36;100.00;100058.25;6275878;22;19922;-86
2022/09/05 08:39:11;;;;;;;;;;;;;;;11.28;100.00;100061.25;6247599;22;20000;-86
2022/09/05 08:42:05;;;;;;;;;;;;;;;11.10;100.00;100057.53;6249100;22;19918;-87
2022/09/05 08:44:50;;;;;;;;;;;;;;;11.27;100.00;100049.75;6248674;22;19938;-85
2022/09/05 08:47:35;;;;;;;;;;;;;;;11.31;100.00;100039.88;6276709;22;19947;-87
2022/09/05 08:50:22;;;;;;;;;;;;;;;11.20;100.00;100042.09;6276036;22;19954;-86
2022/09/05 08:53:08;;;;;;;;;;;;;;;11.11;100.00;100042.50;6275239;22;19993;-86
2022/09/05 08:55:37;;;;;;;;;;;;;;;11.04;100.00;100045.41;6275879;22;19919;-90
2022/09/05 08:58:05;;;;;;;;;;;;;;;14.12;100.00;100037.25;6276474;22;19922;-89
2022/09/05 09:00:56;;;;;;;;;;;;;;;13.06;100.00;100031.06;6275133;22;19912;-86
2022/09/05 09:03:27;;;;;;;;;;;;;;;12.32;100.00;100025.78;6220326;22;19911;-86
2022/09/05 09:06:24;;;;;;;;;;;;;;;12.12;100.00;100024.88;6275582;22;20390;-84
2022/09/05 09:09:09;;;;;;;;;;;;;;;11.92;100.00;100019.63;6237167;22;19915;-87
2022/09/05 09:11:48;;;;;;;;;;;;;;;11.78;100.00;100012.25;6239685;22;20274;-86
2022/09/05 09:14:37;;;;;;;;;;;;;;;11.91;100.00;100007.25;6276159;22;19922;-87
2022/09/05 09:17:18;;;;;;;;;;;;;;;11.90;100.00;100005.50;6267189;22;19911;-86
2022/09/05 09:19:49;;;;;;;;;;;;;;;11.77;100.00;100003.38;6276102;22;19915;-86
2022/09/05 09:22:21;;;;;;;;;;;;;;;11.58;100.00;100002.47;6275759;22;19926;-85
2022/09/05 09:24:57;;;;;;;;;;;;;;;11.63;100.00;99987.22;6273506;22;19915;-87
2022/09/05 09:27:29;;;;;;;;;;;;;;;11.80;100.00;99989.13;6275619;22;19947;-87
2022/09/05 09:30:00;;;;;;;;;;;;;;;11.73;100.00;99988.56;6276163;22;19916;-87
2022/09/05 09:32:28;;;;;;;;;;;;;;;11.63;100.00;99992.53;6275749;22;19916;-86
2022/09/05 09:35:03;;;;;;;;;;;;;;;11.61;100.00;99984.63;6248593;22;19911;-86
2022/09/05 09:37:31;;;;;;;;;;;;;;;11.78;100.00;99989.19;6273420;22;19915;-86
2022/09/05 09:40:02;;;;;;;;;;;;;;;11.73;100.00;99979.72;6274352;22;19911;-86
2022/09/05 09:42:37;;;;;;;;;;;;;;;11.61;100.00;99975.81;6275106;22;19946;-87
2022/09/05 09:45:25;;;;;;;;;;;;;;;11.56;100.00;99975.16;6275801;22;19918;-88
2022/09/05 09:47:50;;;;;;;;;;;;;;;11.71;100.00;99979.81;6275322;22;20319;-86
2022/09/05 09:50:34;;;;;;;;;;;;;;;11.74;100.00;99984.09;6274512;22;19922;-86
2022/09/05 09:52:59;;;;;;;;;;;;;;;11.65;100.00;99980.06;6273099;22;19911;-85
2022/09/05 09:55:45;;;;;;;;;;;;;;;11.62;100.00;99974.91;6274457;22;19999;-85
2022/09/05 09:58:28;;;;;;;;;;;;;;;11.77;100.00;99979.50;6275976;22;19922;-88
2022/09/05 10:01:14;;;;;;;;;;;;;;;11.81;100.00;99982.91;6272952;22;20498;-87
2022/09/05 10:03:51;;;;;;;;;;;;;;;11.71;100.00;99973.59;6273444;22;19918;-87
2022/09/05 10:06:17;;;;;;;;;;;;;;;11.61;100.00;99962.53;6274036;22;20338;-86
2022/09/05 10:08:53;;;;;;;;;;;;;;;11.61;100.00;99967.84;6274577;22;19915;-88
2022/09/05 10:11:21;;;;;;;;;;;;;;;11.79;100.00;99960.84;6249078;22;19915;-87
2022/09/05 10:13:47;;;;;;;;;;;;;;;11.73;100.00;99962.00;6275229;22;19915;-89
2022/09/05 10:16:18;;;;;;;;;;;;;;;11.61;100.00;99954.56;6275330;22;19918;-86
2022/09/05 10:19:13;;;;;;;;;;;;;;;11.75;100.00;99954.81;6275644;22;19934;-86
2022/09/05 10:21:38;;;;;;;;;;;;;;;11.91;100.00;99949.69;6274840;22;19915;-86
2022/09/05 10:24:06;;;;;;;;;;;;;;;12.36;100.00;99944.97;6273099;22;20035;-88
2022/09/05 10:26:31;;;;;;;;;;;;;;;11.89;100.00;99935.63;6272884;22;19925;-85
2022/09/05 10:29:05;;;;;;;;;;;;;;;11.84;100.00;99942.06;6275246;22;19942;-87
2022/09/05 10:31:42;;;;;;;;;;;;;;;11.95;100.00;99939.81;6248527;22;19911;-90
2022/09/05 10:34:20;;;;;;;;;;;;;;;;;;;;;
2022/09/05 10:36:50;;;;;;;;;;;;;;;11.68;100.00;99925.97;6275722;22;19998;-90
2022/09/05 10:39:30;;;;;;;;;;;;;;;11.67;100.00;99925.13;6246981;22;19934;-86
2022/09/05 10:41:59;;;;;;;;;;;;;;;11.68;100.00;99921.53;6275709;22;20241;-86
2022/09/05 10:44:36;;;;;;;;;;;;;;;11.81;100.00;99916.53;6274664;22;19911;-88
2022/09/05 10:47:14;;;;;;;;;;;;;;;11.71;100.00;99925.84;6273510;22;19911;-87
2022/09/05 10:49:44;;;;;;;;;;;;;;;11.59;100.00;99916.66;6273355;22;19915;-92
2022/09/05 10:52:36;;;;;;;;;;;;;;;11.55;100.00;99909.75;6275632;22;19922;-86
2022/09/05 10:55:08;;;;;;;;;;;;;;;11.63;100.00;99913.78;6259986;22;20052;-86
2022/09/05 10:57:43;;;;;;;;;;;;;;;11.74;100.00;99899.16;6273924;22;19919;-87
2022/09/05 11:00:36;;;;;;;;;;;;;;;;;;;;;
2022/09/05 11:03:03;;;;;;;;;;;;;;;11.54;100.00;99894.75;6274252;22;19997;-88
2022/09/05 11:05:35;;;;;;;;;;;;;;;11.53;100.00;99895.69;6248067;22;20235;-88
2022/09/05 11:08:35;;;;;;;;;;;;;;;11.76;100.00;99892.84;6273478;22;19946;-88
2022/09/05 11:11:29;;;;;;;;;;;;;;;11.81;100.00;99887.34;6151569;23;20321;-88
2022/09/05 11:13:56;;;;;;;;;;;;;;;11.75;100.00;99884.97;6201523;22;20024;-86
2022/09/05 11:16:47;;;;;;;;;;;;;;;11.68;100.00;99880.84;6247849;22;20343;-87
2022/09/05 11:19:48;;;;;;;;;;;;;;;11.56;100.00;99884.94;6268201;22;19998;-87
2022/09/05 11:22:15;;;;;;;;;;;;;;;11.53;100.00;99879.75;6127263;23;19913;-89
2022/09/05 11:24:57;;;;;;;;;;;;;;;11.74;100.00;99869.94;6220929;22;19911;-86
2022/09/05 11:27:31;;;;;;;;;;;;;;;11.76;100.00;99870.75;6274993;22;19922;-88
2022/09/05 11:30:12;;;;;;;;;;;;;;;11.67;100.00;99865.88;6273436;22;19922;-87
2022/09/05 11:32:40;;;;;;;;;;;;;;;11.56;100.00;99859.25;6248103;22;19965;-88
2022/09/05 11:35:17;;;;;;;;;;;;;;;11.52;100.00;99867.41;6272134;22;19911;-86
2022/09/05 11:37:47;;;;;;;;;;;;;;;11.68;100.00;99860.50;6273621;22;19921;-88
2022/09/05 11:40:42;;;;;;;;;;;;;;;11.62;100.00;99858.97;6274290;22;19982;-87
2022/09/05 11:43:10;;;;;;;;;;;;;;;11.54;100.00;99860.28;6256060;22;19918;-86
2022/09/05 11:45:48;;;;;;;;;;;;;;;11.39;100.00;99864.47;6229949;22;19922;-86
2022/09/05 11:48:31;;;;;;;;;;;;;;;11.47;100.00;99853.50;6192452;23;20303;-86
2022/09/05 11:51:12;;;;;;;;;;;;;;;11.57;100.00;99855.69;6217845;23;20241;-85
2022/09/05 11:53:44;;;;;;;;;;;;;;;11.62;100.00;99856.31;6090592;23;20237;-87
2022/09/05 11:56:21;;;;;;;;;;;;;;;11.54;100.00;99849.66;6219159;23;19913;-87
2022/09/05 11:59:06;;;;;;;;;;;;;;;11.45;100.00;99849.16;6193875;23;20276;-86
2022/09/05 12:01:50;;;;;;;;;;;;;;;11.48;100.00;99849.94;6092659;23;19918;-87
2022/09/05 12:04:52;;;;;;;;;;;;;;;11.52;100.00;99844.41;6091958;23;20012;-87
2022/09/05 12:07:37;;;;;;;;;;;;;;;11.66;100.00;99834.94;6194794;23;19918;-86
2022/09/05 12:10:16;;;;;;;;;;;;;;;11.60;100.00;99836.97;6218075;23;19913;-86
2022/09/05 12:12:56;;;;;;;;;;;;;;;11.45;100.00;99827.94;6212118;23;19935;-86
2022/09/05 12:15:23;;;;;;;;;;;;;;;11.41;100.00;99822.81;6212704;23;19912;-86
2022/09/05 12:17:52;;;;;;;;;;;;;;;11.42;100.00;99821.88;6187380;23;19919;-87
2022/09/05 12:20:34;;;;;;;;;;;;;;;11.53;100.00;99819.59;6188176;23;20307;-87
2022/09/05 12:23:13;;;;;;;;;;;;;;;11.46;100.00;99818.16;6186451;23;19943;-88
2022/09/05 12:25:56;;;;;;;;;;;;;;;11.35;100.00;99810.69;6212185;23;20287;-86
2022/09/05 12:28:49;;;;;;;;;;;;;;;11.35;100.00;99817.78;6187643;23;19912;-87
2022/09/05 12:31:21;;;;;;;;;;;;;;;11.36;100.00;99819.50;6187277;23;19919;-87
2022/09/05 12:33:47;;;;;;;;;;;;;;;11.56;100.00;99818.59;6187268;23;19968;-86
2022/09/05 12:36:16;;;;;;;;;;;;;;;11.36;100.00;99812.41;6187707;23;19912;-85
2022/09/05 12:38:43;;;;;;;;;;;;;;;11.29;100.00;99813.63;6185689;23;19916;-88
2022/09/05 12:41:36;;;;;;;;;;;;;;;11.45;100.00;99809.34;6187048;23;19999;-89
2022/09/05 12:44:02;;;;;;;;;;;;;;;11.50;100.00;99810.91;6178323;23;20344;-88
2022/09/05 12:46:46;;;;;;;;;;;;;;;11.42;100.00;99806.84;6149149;22;19992;-87
2022/09/05 12:49:32;;;;;;;;;;;;;;;11.34;100.00;99801.00;6114564;23;19918;-88
2022/09/05 12:52:06;;;;;;;;;;;;;;;11.38;100.00;99804.38;6090555;23;19984;-86
2022/09/05 12:54:58;;;;;;;;;;;;;;;11.48;100.00;99807.47;6089042;23;19920;-86
2022/09/05 12:57:31;;;;;;;;;;;;;;;11.55;100.00;99803.59;6105036;23;19956;-87
2022/09/05 12:59:58;;;;;;;;;;;;;;;11.48;100.00;99791.56;6090932;23;19940;-87
2022/09/05 13:02:30;;;;;;;;;;;;;;;11.34;100.00;99794.84;6091212;23;19920;-85
2022/09/05 13:05:00;;;;;;;;;;;;;;;11.29;100.00;99796.84;6091092;23;19967;-88
2022/09/05 13:07:26;;;;;;;;;;;;;;;11.56;100.00;99789.41;6092819;23;20305;-87
2022/09/05 13:10:03;;;;;;;;;;;;;;;11.55;100.00;99792.97;6113759;23;20032;-86
2022/09/05 13:12:35;;;;;;;;;;;;;;;11.51;100.00;99786.97;6092200;23;19913;-87
2022/09/05 13:15:19;;;;;;;;;;;;;;;11.53;100.00;99786.88;6090902;23;20334;-87
2022/09/05 13:17:51;;;;;;;;;;;;;;;11.68;100.00;99780.88;6091621;23;19924;-89
2022/09/05 13:20:34;;;;;;;;;;;;;;;11.64;100.00;99779.28;6090460;23;19964;-87
2022/09/05 13:23:18;;;;;;;;;;;;;;;11.57;100.00;99776.06;6090096;23;19996;-85
2022/09/05 13:25:56;;;;;;;;;;;;;;;11.47;100.00;99765.94;6115491;23;19925;-88
2022/09/05 13:28:24;;;;;;;;;;;;;;;11.61;100.00;99768.81;6090032;23;19917;-87
2022/09/05 13:31:16;;;;;;;;;;;;;;;;;;;;;
2022/09/05 13:33:44;;;;;;;;;;;;;;;11.66;100.00;99769.44;6091986;23;19996;-88
2022/09/05 13:36:16;;;;;;;;;;;;;;;11.55;100.00;99756.72;6092014;23;20288;-88
2022/09/05 13:38:53;;;;;;;;;;;;;;;11.60;100.00;99753.84;6090855;23;19917;-87
2022/09/05 13:41:24;;;;;;;;;;;;;;;11.77;100.00;99753.00;6092484;23;19935;-87
2022/09/05 13:43:52;;;;;;;;;;;;;;;11.66;100.00;99744.72;6090396;23;19913;-88
2022/09/05 13:46:28;;;;;;;;;;;;;;;11.56;100.00;99747.78;6114212;23;19924;-88
2022/09/05 13:49:03;;;;;;;;;;;;;;;11.57;100.00;99733.59;6090219;23;19917;-87
2022/09/05 13:51:46;;;;;;;;;;;;;;;11.77;100.00;99735.28;6115222;23;19985;-88
2022/09/05 13:54:35;;;;;;;;;;;;;;;11.75;100.00;99737.16;6113084;23;20322;-91
2022/09/05 13:57:15;;;;;;;;;;;;;;;11.71;100.00;99735.59;6115020;23;19987;-87
2022/09/05 13:59:41;;;;;;;;;;;;;;;11.66;100.00;99732.28;6092793;23;19924;-88
2022/09/05 14:02:27;;;;;;;;;;;;;;;11.88;100.00;99726.81;6090956;23;19924;-86
2022/09/05 14:05:00;;;;;;;;;;;;;;;11.84;100.00;99722.59;6091912;23;19913;-87
2022/09/05 14:07:43;;;;;;;;;;;;;;;11.77;100.00;99723.81;6090550;23;19928;-88
2022/09/05 14:10:27;;;;;;;;;;;;;;;11.66;100.00;99726.13;6091356;23;19914;-86
2022/09/05 14:13:14;;;;;;;;;;;;;;;11.75;100.00;99726.53;6114263;23;20292;-86
2022/09/05 14:15:40;;;;;;;;;;;;;;;11.89;100.00;99725.03;6091940;23;19940;-88
2022/09/05 14:18:14;;;;;;;;;;;;;;;11.87;100.00;99718.91;6092056;23;19917;-85
2022/09/05 14:23:39;;;;;;;;;;;;;;;11.76;100.00;99716.81;6089808;23;19924;-87
2022/09/05 14:26:11;;;;;;;;;;;;;;;14.62;100.00;99711.03;6115085;23;19914;-85
2022/09/05 14:28:46;;;;;;;;;;;;;;;12.57;100.00;99716.31;6092949;23;20249;-89
2022/09/05 14:31:20;;;;;;;;;;;;;;;12.24;100.00;99714.44;6093144;23;19917;-89
2022/09/05 14:33:45;;;;;;;;;;;;;;;12.04;100.00;99711.00;6092567;23;19917;-85
2022/09/05 14:36:21;;;;;;;;;;;;;;;12.12;100.00;99708.81;6092260;23;20285;-84
2022/09/05 14:39:07;;;;;;;;;;;;;;;12.09;100.00;99713.44;6090709;23;19999;-85
2022/09/05 14:41:35;;;;;;;;;;;;;;;12.04;100.00;99708.34;6091526;23;19958;-84
2022/09/05 14:44:21;;;;;;;;;;;;;;;11.92;100.00;99711.63;6092178;23;19922;-86
2022/09/05 14:47:05;;;;;;;;;;;;;;;11.96;100.00;99714.03;6221842;23;20349;-85
2022/09/05 14:49:49;;;;;;;;;;;;;;;12.11;100.00;99706.22;6243520;23;19927;-84
2022/09/05 14:52:22;;;;;;;;;;;;;;;12.93;100.00;99704.69;6233601;22;20070;-82
2022/09/05 14:54:57;;;;;;;;;;;;;;;12.20;100.00;99700.47;6180565;23;19916;-84
2022/09/05 14:57:26;;;;;;;;;;;;;;;11.86;100.00;99703.94;6182995;23;20280;-87
2022/09/05 14:59:54;;;;;;;;;;;;;;;11.90;100.00;99692.22;6184245;23;19912;-85
2022/09/05 15:02:25;;;;;;;;;;;;;;;11.71;100.00;99690.47;6208672;23;20308;-89
2022/09/05 15:04:54;;;;;;;;;;;;;;;11.55;100.00;99686.84;6207342;23;19919;-84
2022/09/05 15:07:30;;;;;;;;;;;;;;;11.78;100.00;99686.56;6183221;23;19912;-88
2022/09/05 15:10:14;;;;;;;;;;;;;;;11.66;100.00;99683.66;6183611;23;19943;-82
2022/09/05 15:12:46;;;;;;;;;;;;;;;11.59;100.00;99677.81;6208720;23;19912;-91
2022/09/05 15:15:21;;;;;;;;;;;;;;;11.61;100.00;99690.03;6183402;23;19916;-86
2022/09/05 15:17:49;;;;;;;;;;;;;;;11.76;100.00;99687.59;6184433;23;19913;-86
2022/09/05 15:20:34;;;;;;;;;;;;;;;11.64;100.00;99679.28;6183193;23;20244;-91
2022/09/05 15:23:01;;;;;;;;;;;;;;;11.64;100.00;99683.75;6184056;23;20255;-88
2022/09/05 15:25:27;;;;;;;;;;;;;;;11.84;100.00;99680.13;6183978;23;19920;-90
2022/09/05 15:27:53;;;;;;;;;;;;;;;11.81;100.00;99680.28;6211017;23;20343;-91
2022/09/05 15:30:20;;;;;;;;;;;;;;;11.72;100.00;99686.88;6184176;23;19912;-92
2022/09/05 15:32:46;;;;;;;;;;;;;;;11.94;100.00;99685.84;6186564;23;19919;-90
2022/09/05 15:35:34;;;;;;;;;;;;;;;11.93;100.00;99686.78;6186477;23;20051;-90
2022/09/05 15:37:59;;;;;;;;;;;;;;;11.82;100.00;99682.84;6185360;23;19966;-88
2022/09/05 15:40:24;;;;;;;;;;;;;;;12.03;100.00;99681.88;6210309;23;19940;-90
2022/09/05 15:42:51;;;;;;;;;;;;;;;12.02;100.00;99683.66;6186783;23;20023;-90
2022/09/05 15:45:27;;;;;;;;;;;;;;;11.95;100.00;99677.81;6187066;23;19919;-87
2022/09/05 15:48:08;;;;;;;;;;;;;;;12.13;100.00;99673.34;6184666;23;19912;-89
2022/09/05 15:50:43;;;;;;;;;;;;;;;14.07;100.00;99666.34;6186143;23;19970;-91
2022/09/05 15:53:14;;;;;;;;;;;;;;;12.82;100.00;99671.53;6184574;23;19999;-90
2022/09/05 15:55:47;;;;;;;;;;;;;;;12.39;100.00;99673.81;6186797;23;19916;-90
2022/09/05 15:58:16;;;;;;;;;;;;;;;12.84;100.00;99669.66;6235988;23;20321;-87
2022/09/05 16:00:45;;;;;;;;;;;;;;;12.33;100.00;99666.16;6186082;23;19916;-83
2022/09/05 16:03:17;;;;;;;;;;;;;;;11.96;100.00;99665.38;6186263;23;19908;-85
2022/09/05 16:06:03;;;;;;;;;;;;;;;11.99;100.00;99670.53;6187037;23;19917;-86
2022/09/05 16:08:33;;;;;;;;;;;;;;;11.90;100.00;99671.84;6184174;23;19915;-90
2022/09/05 16:11:17;;;;;;;;;;;;;;;11.74;100.00;99662.91;6186616;23;19912;-86
2022/09/05 16:13:46;;;;;;;;;;;;;;;11.56;100.00;99654.91;6210609;23;19943;-88
2022/09/05 16:16:14;;;;;;;;;;;;;;;11.81;100.00;99649.25;6185338;23;19916;-88
2022/09/05 16:18:46;;;;;;;;;;;;;;;11.71;100.00;99640.06;6184452;23;19920;-86
2022/09/05 16:21:17;;;;;;;;;;;;;;;11.60;100.00;99639.72;6186705;23;19919;-87
2022/09/05 16:24:01;;;;;;;;;;;;;;;11.82;100.00;99636.84;6186187;23;19912;-89
2022/09/05 16:26:28;;;;;;;;;;;;;;;11.70;100.00;99633.03;6184704;23;19998;-91
2022/09/05 16:28:59;;;;;;;;;;;;;;;11.57;100.00;99626.63;6186059;23;19916;-88
2022/09/05 16:31:54;;;;;;;;;;;;;;;11.68;100.00;99618.09;6186010;23;19947;-88
2022/09/05 16:34:22;;;;;;;;;;;;;;;11.74;100.00;99618.66;6171086;23;19913;-90
2022/09/05 16:37:01;;;;;;;;;;;;;;;11.59;100.00;99617.63;6234059;23;19994;-87
2022/09/05 16:39:31;;;;;;;;;;;;;;;11.60;100.00;99613.19;6209460;23;19991;-88
2022/09/05 16:42:02;;;;;;;;;;;;;;;11.71;100.00;99613.50;6184965;23;19974;-86
2022/09/05 16:44:31;;;;;;;;;;;;;;;11.74;100.00;99613.34;6184739;23;19995;-86
2022/09/05 16:47:08;;;;;;;;;;;;;;;11.62;100.00;99617.47;6184766;23;19916;-89
2022/09/05 16:49:51;;;;;;;;;;;;;;;11.58;100.00;99617.69;6234039;23;20332;-84
2022/09/05 16:52:22;;;;;;;;;;;;;;;11.76;100.00;99616.78;6184083;23;19989;-86
2022/09/05 16:54:52;;;;;;;;;;;;;;;11.64;100.00;99620.06;6185050;23;19923;-91
2022/09/05 16:57:21;;;;;;;;;;;;;;;11.55;100.00;99625.81;6209529;23;19912;-89
2022/09/05 16:59:49;;;;;;;;;;;;;;;11.74;100.00;99623.09;6186426;23;19912;-89
2022/09/05 17:02:31;;;;;;;;;;;;;;;11.72;100.00;99620.53;6183374;23;20340;-87
2022/09/05 17:05:26;;;;;;;;;;;;;;;11.67;100.00;99622.56;6183422;23;19913;-88
2022/09/05 17:08:12;;;;;;;;;;;;;;;11.62;100.00;99613.97;6209499;23;19908;-85
2022/09/05 17:10:44;;;;;;;;;;;;;;;11.75;100.00;99616.88;6185297;23;19923;-90
2022/09/05 17:13:29;;;;;;;;;;;;;;;11.84;100.00;99608.44;6183895;23;20290;-90
2022/09/05 17:16:18;;;;;;;;;;;;;;;11.76;100.00;99607.97;6184263;23;20342;-89
2022/09/05 17:18:45;;;;;;;;;;;;;;;11.63;100.00;99607.69;6184571;23;19931;-87
2022/09/05 17:21:19;;;;;;;;;;;;;;;11.79;100.00;99610.44;6183150;23;19912;-84
2022/09/05 17:23:57;;;;;;;;;;;;;;;11.92;100.00;99621.38;6182376;23;19927;-88
2022/09/05 17:26:42;;;;;;;;;;;;;;;11.88;100.00;99619.75;6182956;23;19943;-88
2022/09/05 17:29:31;;;;;;;;;;;;;;;11.78;100.00;99620.22;6184739;23;19912;-85
2022/09/05 17:31:58;;;;;;;;;;;;;;;11.81;100.00;99617.41;6155574;23;19912;-88
2022/09/05 17:34:32;;;;;;;;;;;;;;;12.33;100.00;99621.00;6185376;23;19912;-88
2022/09/05 17:37:07;;;;;;;;;;;;;;;11.95;100.00;99627.38;6234501;23;19916;-89
2022/09/05 17:39:42;;;;;;;;;;;;;;;11.73;100.00;99627.56;6232823;23;19983;-87
2022/09/05 17:42:14;;;;;;;;;;;;;;;11.90;100.00;99634.69;6184187;23;20324;-89
2022/09/05 17:44:55;;;;;;;;;;;;;;;11.74;100.00;99645.22;6183725;23;19987;-87
2022/09/05 17:47:21;;;;;;;;;;;;;;;11.65;100.00;99637.69;6234229;23;19999;-87
2022/09/05 17:49:47;;;;;;;;;;;;;;;11.69;100.00;99649.88;6184946;23;19919;-87
2022/09/05 17:52:16;;;;;;;;;;;;;;;11.68;100.00;99649.94;6183539;23;19920;-88
2022/09/05 17:54:43;;;;;;;;;;;;;;;11.51;100.00;99656.09;6183488;23;19916;-87
2022/09/05 17:57:30;;;;;;;;;;;;;;;11.45;100.00;99655.47;6185241;23;20299;-87
2022/09/05 18:00:03;;;;;;;;;;;;;;;11.56;100.00;99652.28;6185170;23;19922;-88
2022/09/05 18:02:32;;;;;;;;;;;;;;;11.60;100.00;99648.53;6183650;23;19908;-87
2022/09/05 18:04:58;;;;;;;;;;;;;;;11.50;100.00;99657.03;6185347;23;19943;-88
2022/09/05 18:07:33;;;;;;;;;;;;;;;11.41;100.00;99648.59;6183425;23;19912;-88
2022/09/05 18:10:05;;;;;;;;;;;;;;;11.57;100.00;99651.34;6232490;23;19916;-87
2022/09/05 18:12:48;;;;;;;;;;;;;;;11.57;100.00;99638.06;6185108;23;19939;-87
2022/09/05 18:15:30;;;;;;;;;;;;;;;11.54;100.00;99638.22;6183083;23;19923;-88
2022/09/05 18:18:04;;;;;;;;;;;;;;;11.47;100.00;99635.94;6185061;23;19927;-87
2022/09/05 18:20:38;;;;;;;;;;;;;;;11.43;100.00;99641.41;6182847;23;19912;-88
2022/09/05 18:23:26;;;;;;;;;;;;;;;11.62;100.00;99624.59;6207181;23;19930;-88
2022/09/05 18:26:05;;;;;;;;;;;;;;;11.53;100.00;99636.50;6183874;23;19912;-87
2022/09/05 18:28:44;;;;;;;;;;;;;;;11.44;100.00;99645.78;6183499;23;19948;-87
2022/09/05 18:31:28;;;;;;;;;;;;;;;11.38;100.00;99640.75;6183184;23;19912;-87
2022/09/05 18:34:12;;;;;;;;;;;;;;;11.54;100.00;99632.06;6208125;23;20360;-87
2022/09/05 18:36:37;;;;;;;;;;;;;;;11.58;100.00;99638.94;6233750;23;20313;-87
2022/09/05 18:39:24;;;;;;;;;;;;;;;11.45;100.00;99650.16;6182952;23;19920;-87
2022/09/05 18:41:55;;;;;;;;;;;;;;;11.42;100.00;99645.00;6208393;23;19960;-87
2022/09/05 18:44:26;;;;;;;;;;;;;;;11.39;100.00;99649.56;6183885;23;19944;-88
2022/09/05 18:46:56;;;;;;;;;;;;;;;11.62;100.00;99644.00;6183433;23;19913;-88
2022/09/05 18:49:29;;;;;;;;;;;;;;;11.57;100.00;99654.00;6182660;23;20280;-87
2022/09/05 18:51:57;;;;;;;;;;;;;;;11.44;100.00;99656.41;6207334;23;20234;-87
2022/09/05 18:54:24;;;;;;;;;;;;;;;11.41;100.00;99661.00;6183333;23;19912;-88
2022/09/05 18:56:53;;;;;;;;;;;;;;;11.57;100.00;99656.66;6184680;23;19919;-87
2022/09/05 18:59:21;;;;;;;;;;;;;;;11.52;100.00;99660.44;6207924;23;20287;-87
2022/09/05 19:01:49;;;;;;;;;;;;;;;11.39;100.00;99654.88;6182951;23;19955;-87
2022/09/05 19:04:21;;;;;;;;;;;;;;;11.51;100.00;99650.78;6184622;23;19920;-89
2022/09/05 19:06:48;;;;;;;;;;;;;;;11.60;100.00;99647.69;6182400;23;19916;-87
2022/09/05 19:09:20;;;;;;;;;;;;;;;11.43;100.00;99646.69;6181194;23;19935;-88
2022/09/05 19:12:04;;;;;;;;;;;;;;;11.29;100.00;99648.31;6184149;23;19926;-86
2022/09/05 19:14:30;;;;;;;;;;;;;;;11.36;100.00;99645.31;6206941;23;20245;-88
2022/09/05 19:17:05;;;;;;;;;;;;;;;11.56;100.00;99641.66;6184459;23;19940;-88
2022/09/05 19:19:50;;;;;;;;;;;;;;;11.40;100.00;99653.97;6183002;23;19991;-88
2022/09/05 19:22:16;;;;;;;;;;;;;;;11.36;100.00;99665.63;6182663;23;19996;-87
2022/09/05 19:24:46;;;;;;;;;;;;;;;11.30;100.00;99665.97;6183018;23;19939;-88
2022/09/05 19:27:13;;;;;;;;;;;;;;;11.53;100.00;99664.84;6182871;23;19944;-88
2022/09/05 19:29:42;;;;;;;;;;;;;;;11.44;100.00;99658.19;6182685;23;19916;-88
2022/09/05 19:32:08;;;;;;;;;;;;;;;11.34;100.00;99652.44;6182833;23;20304;-87
2022/09/05 19:34:36;;;;;;;;;;;;;;;11.35;100.00;99646.22;6182815;23;19921;-88
2022/09/05 19:37:17;;;;;;;;;;;;;;;11.53;100.00;99647.09;6233116;23;19923;-89
2022/09/05 19:39:51;;;;;;;;;;;;;;;11.44;100.00;99642.28;6182405;23;20383;-87
2022/09/05 19:42:24;;;;;;;;;;;;;;;11.36;100.00;99639.09;6182659;23;19999;-87
2022/09/05 19:44:54;;;;;;;;;;;;;;;11.32;100.00;99637.56;6183676;23;20292;-87
2022/09/05 19:47:27;;;;;;;;;;;;;;;11.45;100.00;99639.56;6184515;23;19963;-87
2022/09/05 19:49:57;;;;;;;;;;;;;;;11.44;100.00;99640.47;6184669;23;19917;-88
2022/09/05 19:52:23;;;;;;;;;;;;;;;11.35;100.00;99638.25;6182642;23;19920;-87
2022/09/05 19:54:51;;;;;;;;;;;;;;;11.26;100.00;99633.41;6181922;23;19962;-87
2022/09/05 19:57:18;;;;;;;;;;;;;;;11.50;100.00;99633.16;6183090;23;19919;-88
2022/09/05 19:59:44;;;;;;;;;;;;;;;11.49;100.00;99639.38;6182600;23;19919;-87
2022/09/05 20:02:31;;;;;;;;;;;;;;;11.35;100.00;99627.66;6184438;23;19943;-87
2022/09/05 20:05:00;;;;;;;;;;;;;;;11.32;100.00;99635.75;6182433;23;20375;-88
2022/09/05 20:07:27;;;;;;;;;;;;;;;11.47;100.00;99635.94;6181911;23;19913;-87